sensor_id;sensor_type;location;lat;lon;timestamp;P1;durP1;ratioP1;P2;durP2;ratioP2
1180;SDS011;579;52.046;8.532;2023-02-28T00:01:24;0.10;;;0.10;;
1180;SDS011;579;52.046;8.532;2023-02-28T00:03:51;0.10;;;0.10;;
1180;SDS011;579;52.046;8.532;2023-02-28T00:06:17;0.10;;;0.10;;
1180;SDS011;579;52.046;8.532;2023-02-28T00:13:48;0.10;;;0.10;;
1180;SDS011;579;52.046;8.532;2023-02-28T00:16:16;0.10;;;0.10;;
1180;SDS011;579;52.046;8.532;2023-02-28T00:18:45;0.10;;;0.10;;
1180;SDS011;579;52.046;8.532;2023-02-28T00:21:12;0.10;;;0.10;;
1180;SDS011;579;52.046;8.532;2023-02-28T00:23:39;0.10;;;0.10;;
1180;SDS011;579;52.046;8.532;2023-02-28T00:26:05;0.10;;;0.10;;
1180;SDS011;579;52.046;8.532;2023-02-28T00:28:31;0.10;;;0.10;;
1180;SDS011;579;52.046;8.532;2023-02-28T00:36:05;0.10;;;0.10;;
1180;SDS011;579;52.046;8.532;2023-02-28T00:38:34;0.10;;;0.10;;
1180;SDS011;579;52.046;8.532;2023-02-28T00:41:01;0.10;;;0.10;;
1180;SDS011;579;52.046;8.532;2023-02-28T00:43:30;0.10;;;0.10;;
1180;SDS011;579;52.046;8.532;2023-02-28T00:45:57;0.10;;;0.10;;
1180;SDS011;579;52.046;8.532;2023-02-28T00:48:23;0.20;;;0.20;;
1180;SDS011;579;52.046;8.532;2023-02-28T00:50:50;0.10;;;0.10;;
1180;SDS011;579;52.046;8.532;2023-02-28T00:56:10;0.10;;;0.10;;
1180;SDS011;579;52.046;8.532;2023-02-28T00:58:36;0.10;;;0.10;;
1180;SDS011;579;52.046;8.532;2023-02-28T01:01:02;0.10;;;0.10;;
1180;SDS011;579;52.046;8.532;2023-02-28T01:03:29;0.10;;;0.10;;
1180;SDS011;579;52.046;8.532;2023-02-28T01:05:55;0.10;;;0.10;;
1180;SDS011;579;52.046;8.532;2023-02-28T01:08:22;0.10;;;0.10;;
1180;SDS011;579;52.046;8.532;2023-02-28T01:10:49;0.10;;;0.10;;
1180;SDS011;579;52.046;8.532;2023-02-28T01:16:13;0.13;;;0.13;;
1180;SDS011;579;52.046;8.532;2023-02-28T01:18:39;0.10;;;0.10;;
1180;SDS011;579;52.046;8.532;2023-02-28T01:21:06;0.10;;;0.10;;
1180;SDS011;579;52.046;8.532;2023-02-28T01:23:35;0.10;;;0.10;;
1180;SDS011;579;52.046;8.532;2023-02-28T01:26:03;0.10;;;0.10;;
1180;SDS011;579;52.046;8.532;2023-02-28T01:28:31;0.10;;;0.10;;
1180;SDS011;579;52.046;8.532;2023-02-28T01:30:57;0.10;;;0.10;;
1180;SDS011;579;52.046;8.532;2023-02-28T01:33:24;0.00;;;0.00;;
1180;SDS011;579;52.046;8.532;2023-02-28T01:40:51;0.10;;;0.10;;
1180;SDS011;579;52.046;8.532;2023-02-28T01:43:20;0.10;;;0.10;;
1180;SDS011;579;52.046;8.532;2023-02-28T01:45:49;0.10;;;0.10;;
1180;SDS011;579;52.046;8.532;2023-02-28T01:48:15;0.10;;;0.10;;
1180;SDS011;579;52.046;8.532;2023-02-28T01:50:43;0.10;;;0.10;;
1180;SDS011;579;52.046;8.532;2023-02-28T01:53:12;0.10;;;0.10;;
1180;SDS011;579;52.046;8.532;2023-02-28T01:55:42;0.13;;;0.13;;
1180;SDS011;579;52.046;8.532;2023-02-28T01:58:14;0.10;;;0.10;;
1180;SDS011;579;52.046;8.532;2023-02-28T02:05:46;0.10;;;0.10;;
1180;SDS011;579;52.046;8.532;2023-02-28T02:08:13;0.10;;;0.10;;
1180;SDS011;579;52.046;8.532;2023-02-28T02:10:43;0.10;;;0.10;;
1180;SDS011;579;52.046;8.532;2023-02-28T02:13:19;0.10;;;0.10;;
1180;SDS011;579;52.046;8.532;2023-02-28T02:16:21;0.20;;;0.20;;
1180;SDS011;579;52.046;8.532;2023-02-28T02:19:01;0.10;;;0.10;;
1180;SDS011;579;52.046;8.532;2023-02-28T02:21:54;0.10;;;0.10;;
1180;SDS011;579;52.046;8.532;2023-02-28T02:27:39;0.10;;;0.10;;
1180;SDS011;579;52.046;8.532;2023-02-28T02:30:44;0.10;;;0.10;;
1180;SDS011;579;52.046;8.532;2023-02-28T02:33:45;0.10;;;0.10;;
1180;SDS011;579;52.046;8.532;2023-02-28T02:37:14;0.20;;;0.20;;
1180;SDS011;579;52.046;8.532;2023-02-28T02:39:58;0.10;;;0.10;;
1180;SDS011;579;52.046;8.532;2023-02-28T02:42:34;0.10;;;0.10;;
1180;SDS011;579;52.046;8.532;2023-02-28T02:50:14;0.15;;;0.15;;
1180;SDS011;579;52.046;8.532;2023-02-28T02:52:45;0.10;;;0.10;;
1180;SDS011;579;52.046;8.532;2023-02-28T02:55:16;0.10;;;0.10;;
1180;SDS011;579;52.046;8.532;2023-02-28T02:57:46;0.20;;;0.20;;
1180;SDS011;579;52.046;8.532;2023-02-28T03:00:15;0.10;;;0.10;;
1180;SDS011;579;52.046;8.532;2023-02-28T03:02:46;0.10;;;0.10;;
1180;SDS011;579;52.046;8.532;2023-02-28T03:05:17;0.10;;;0.10;;
1180;SDS011;579;52.046;8.532;2023-02-28T03:12:57;0.10;;;0.10;;
1180;SDS011;579;52.046;8.532;2023-02-28T03:15:38;0.10;;;0.10;;
1180;SDS011;579;52.046;8.532;2023-02-28T03:18:23;0.17;;;0.17;;
1180;SDS011;579;52.046;8.532;2023-02-28T03:20:59;0.10;;;0.10;;
1180;SDS011;579;52.046;8.532;2023-02-28T03:23:33;0.10;;;0.10;;
1180;SDS011;579;52.046;8.532;2023-02-28T03:26:12;0.10;;;0.10;;
1180;SDS011;579;52.046;8.532;2023-02-28T03:28:47;0.10;;;0.10;;
1180;SDS011;579;52.046;8.532;2023-02-28T03:36:28;0.10;;;0.10;;
1180;SDS011;579;52.046;8.532;2023-02-28T03:38:58;0.10;;;0.10;;
1180;SDS011;579;52.046;8.532;2023-02-28T03:41:31;0.20;;;0.20;;
1180;SDS011;579;52.046;8.532;2023-02-28T03:44:05;0.10;;;0.10;;
1180;SDS011;579;52.046;8.532;2023-02-28T03:46:36;0.10;;;0.10;;
1180;SDS011;579;52.046;8.532;2023-02-28T03:49:06;0.10;;;0.10;;
1180;SDS011;579;52.046;8.532;2023-02-28T03:51:40;0.15;;;0.15;;
1180;SDS011;579;52.046;8.532;2023-02-28T03:59:15;0.17;;;0.17;;
1180;SDS011;579;52.046;8.532;2023-02-28T04:01:45;0.20;;;0.20;;
1180;SDS011;579;52.046;8.532;2023-02-28T04:04:13;0.10;;;0.10;;
1180;SDS011;579;52.046;8.532;2023-02-28T04:06:41;0.10;;;0.10;;
1180;SDS011;579;52.046;8.532;2023-02-28T04:09:09;0.10;;;0.10;;
1180;SDS011;579;52.046;8.532;2023-02-28T04:11:38;0.10;;;0.10;;
1180;SDS011;579;52.046;8.532;2023-02-28T04:14:06;0.10;;;0.10;;
1180;SDS011;579;52.046;8.532;2023-02-28T04:19:42;0.10;;;0.10;;
1180;SDS011;579;52.046;8.532;2023-02-28T04:22:09;0.20;;;0.20;;
1180;SDS011;579;52.046;8.532;2023-02-28T04:24:35;0.10;;;0.10;;
1180;SDS011;579;52.046;8.532;2023-02-28T04:27:06;0.10;;;0.10;;
1180;SDS011;579;52.046;8.532;2023-02-28T04:29:34;0.10;;;0.10;;
1180;SDS011;579;52.046;8.532;2023-02-28T04:32:01;0.10;;;0.10;;
1180;SDS011;579;52.046;8.532;2023-02-28T04:34:28;0.10;;;0.10;;
1180;SDS011;579;52.046;8.532;2023-02-28T04:36:57;0.10;;;0.10;;
1180;SDS011;579;52.046;8.532;2023-02-28T04:44:31;0.10;;;0.10;;
1180;SDS011;579;52.046;8.532;2023-02-28T04:46:57;0.10;;;0.10;;
1180;SDS011;579;52.046;8.532;2023-02-28T04:49:23;0.10;;;0.10;;
1180;SDS011;579;52.046;8.532;2023-02-28T04:51:49;0.10;;;0.10;;
1180;SDS011;579;52.046;8.532;2023-02-28T04:54:15;0.10;;;0.10;;
1180;SDS011;579;52.046;8.532;2023-02-28T04:56:43;0.13;;;0.13;;
1180;SDS011;579;52.046;8.532;2023-02-28T04:59:09;0.10;;;0.10;;
1180;SDS011;579;52.046;8.532;2023-02-28T05:01:36;0.20;;;0.20;;
1180;SDS011;579;52.046;8.532;2023-02-28T05:09:08;0.13;;;0.13;;
1180;SDS011;579;52.046;8.532;2023-02-28T05:11:36;0.10;;;0.10;;
1180;SDS011;579;52.046;8.532;2023-02-28T05:14:04;0.10;;;0.10;;
1180;SDS011;579;52.046;8.532;2023-02-28T05:16:32;0.10;;;0.10;;
1180;SDS011;579;52.046;8.532;2023-02-28T05:18:58;0.10;;;0.10;;
1180;SDS011;579;52.046;8.532;2023-02-28T05:21:27;0.10;;;0.10;;
1180;SDS011;579;52.046;8.532;2023-02-28T05:23:55;0.10;;;0.10;;
1180;SDS011;579;52.046;8.532;2023-02-28T05:26:24;0.10;;;0.10;;
1180;SDS011;579;52.046;8.532;2023-02-28T05:33:42;0.10;;;0.10;;
1180;SDS011;579;52.046;8.532;2023-02-28T05:36:09;0.10;;;0.10;;
1180;SDS011;579;52.046;8.532;2023-02-28T05:38:35;0.10;;;0.10;;
1180;SDS011;579;52.046;8.532;2023-02-28T05:41:04;0.10;;;0.10;;
1180;SDS011;579;52.046;8.532;2023-02-28T05:43:32;0.10;;;0.10;;
1180;SDS011;579;52.046;8.532;2023-02-28T05:45:58;0.10;;;0.10;;
1180;SDS011;579;52.046;8.532;2023-02-28T05:48:27;0.10;;;0.10;;
1180;SDS011;579;52.046;8.532;2023-02-28T05:50:54;0.10;;;0.10;;
1180;SDS011;579;52.046;8.532;2023-02-28T05:58:20;0.10;;;0.10;;
1180;SDS011;579;52.046;8.532;2023-02-28T06:00:47;0.10;;;0.10;;
1180;SDS011;579;52.046;8.532;2023-02-28T06:03:13;0.13;;;0.13;;
1180;SDS011;579;52.046;8.532;2023-02-28T06:05:39;0.10;;;0.10;;
1180;SDS011;579;52.046;8.532;2023-02-28T06:08:06;0.20;;;0.20;;
1180;SDS011;579;52.046;8.532;2023-02-28T06:10:32;0.10;;;0.10;;
1180;SDS011;579;52.046;8.532;2023-02-28T06:12:59;0.10;;;0.10;;
1180;SDS011;579;52.046;8.532;2023-02-28T06:20:38;0.17;;;0.17;;
1180;SDS011;579;52.046;8.532;2023-02-28T06:23:05;0.10;;;0.10;;
1180;SDS011;579;52.046;8.532;2023-02-28T06:25:31;0.10;;;0.10;;
1180;SDS011;579;52.046;8.532;2023-02-28T06:27:57;0.10;;;0.10;;
1180;SDS011;579;52.046;8.532;2023-02-28T06:30:23;0.10;;;0.10;;
1180;SDS011;579;52.046;8.532;2023-02-28T06:32:51;0.10;;;0.10;;
1180;SDS011;579;52.046;8.532;2023-02-28T06:35:18;0.20;;;0.20;;
1180;SDS011;579;52.046;8.532;2023-02-28T06:40:25;0.10;;;0.10;;
1180;SDS011;579;52.046;8.532;2023-02-28T06:42:51;0.10;;;0.10;;
1180;SDS011;579;52.046;8.532;2023-02-28T06:45:17;0.10;;;0.10;;
1180;SDS011;579;52.046;8.532;2023-02-28T06:47:44;0.10;;;0.10;;
1180;SDS011;579;52.046;8.532;2023-02-28T06:50:10;0.10;;;0.10;;
1180;SDS011;579;52.046;8.532;2023-02-28T06:52:38;0.10;;;0.10;;
1180;SDS011;579;52.046;8.532;2023-02-28T06:55:04;0.10;;;0.10;;
1180;SDS011;579;52.046;8.532;2023-02-28T07:00:13;0.10;;;0.10;;
1180;SDS011;579;52.046;8.532;2023-02-28T07:02:40;0.20;;;0.20;;
1180;SDS011;579;52.046;8.532;2023-02-28T07:05:07;0.30;;;0.30;;
1180;SDS011;579;52.046;8.532;2023-02-28T07:07:35;0.30;;;0.30;;
1180;SDS011;579;52.046;8.532;2023-02-28T07:10:03;0.10;;;0.10;;
1180;SDS011;579;52.046;8.532;2023-02-28T07:12:30;0.20;;;0.20;;
1180;SDS011;579;52.046;8.532;2023-02-28T07:14:57;0.10;;;0.10;;
1180;SDS011;579;52.046;8.532;2023-02-28T07:20:43;0.20;;;0.20;;
1180;SDS011;579;52.046;8.532;2023-02-28T07:23:10;0.30;;;0.30;;
1180;SDS011;579;52.046;8.532;2023-02-28T07:25:36;0.20;;;0.20;;
1180;SDS011;579;52.046;8.532;2023-02-28T07:28:02;0.10;;;0.10;;
1180;SDS011;579;52.046;8.532;2023-02-28T07:30:29;0.20;;;0.20;;
1180;SDS011;579;52.046;8.532;2023-02-28T07:32:55;0.10;;;0.10;;
1180;SDS011;579;52.046;8.532;2023-02-28T07:35:21;0.10;;;0.10;;
1180;SDS011;579;52.046;8.532;2023-02-28T07:37:48;0.10;;;0.10;;
1180;SDS011;579;52.046;8.532;2023-02-28T07:40:42;0.17;;;0.17;;
1180;SDS011;579;52.046;8.532;2023-02-28T07:43:09;0.20;;;0.20;;
1180;SDS011;579;52.046;8.532;2023-02-28T07:45:35;0.20;;;0.20;;
1180;SDS011;579;52.046;8.532;2023-02-28T07:48:01;0.10;;;0.10;;
1180;SDS011;579;52.046;8.532;2023-02-28T07:50:28;0.10;;;0.10;;
1180;SDS011;579;52.046;8.532;2023-02-28T07:52:55;0.20;;;0.20;;
1180;SDS011;579;52.046;8.532;2023-02-28T07:55:22;0.10;;;0.10;;
1180;SDS011;579;52.046;8.532;2023-02-28T08:00:40;0.20;;;0.20;;
1180;SDS011;579;52.046;8.532;2023-02-28T08:03:07;0.15;;;0.15;;
1180;SDS011;579;52.046;8.532;2023-02-28T08:05:37;0.10;;;0.10;;
1180;SDS011;579;52.046;8.532;2023-02-28T08:08:04;0.10;;;0.10;;
1180;SDS011;579;52.046;8.532;2023-02-28T08:10:31;0.10;;;0.10;;
1180;SDS011;579;52.046;8.532;2023-02-28T08:12:57;0.20;;;0.20;;
1180;SDS011;579;52.046;8.532;2023-02-28T08:15:23;0.10;;;0.10;;
1180;SDS011;579;52.046;8.532;2023-02-28T08:17:50;0.10;;;0.10;;
1180;SDS011;579;52.046;8.532;2023-02-28T08:25:22;0.10;;;0.10;;
1180;SDS011;579;52.046;8.532;2023-02-28T08:27:50;0.20;;;0.20;;
1180;SDS011;579;52.046;8.532;2023-02-28T08:30:17;0.10;;;0.10;;
1180;SDS011;579;52.046;8.532;2023-02-28T08:32:43;0.20;;;0.20;;
1180;SDS011;579;52.046;8.532;2023-02-28T08:35:09;0.20;;;0.20;;
1180;SDS011;579;52.046;8.532;2023-02-28T08:37:36;0.10;;;0.10;;
1180;SDS011;579;52.046;8.532;2023-02-28T08:40:02;0.20;;;0.20;;
1180;SDS011;579;52.046;8.532;2023-02-28T08:42:30;0.20;;;0.20;;
1180;SDS011;579;52.046;8.532;2023-02-28T08:49:41;0.10;;;0.10;;
1180;SDS011;579;52.046;8.532;2023-02-28T08:52:08;0.10;;;0.10;;
1180;SDS011;579;52.046;8.532;2023-02-28T08:54:34;0.20;;;0.20;;
1180;SDS011;579;52.046;8.532;2023-02-28T08:57:01;0.10;;;0.10;;
1180;SDS011;579;52.046;8.532;2023-02-28T08:59:28;0.10;;;0.10;;
1180;SDS011;579;52.046;8.532;2023-02-28T09:01:55;0.10;;;0.10;;
1180;SDS011;579;52.046;8.532;2023-02-28T09:04:21;0.10;;;0.10;;
1180;SDS011;579;52.046;8.532;2023-02-28T09:09:28;0.20;;;0.20;;
1180;SDS011;579;52.046;8.532;2023-02-28T09:11:55;0.20;;;0.20;;
1180;SDS011;579;52.046;8.532;2023-02-28T09:14:21;0.17;;;0.17;;
1180;SDS011;579;52.046;8.532;2023-02-28T09:16:47;0.13;;;0.13;;
1180;SDS011;579;52.046;8.532;2023-02-28T09:19:14;0.30;;;0.30;;
1180;SDS011;579;52.046;8.532;2023-02-28T09:21:40;0.20;;;0.20;;
1180;SDS011;579;52.046;8.532;2023-02-28T09:24:06;0.20;;;0.20;;
1180;SDS011;579;52.046;8.532;2023-02-28T09:29:14;0.20;;;0.20;;
1180;SDS011;579;52.046;8.532;2023-02-28T09:31:42;0.20;;;0.20;;
1180;SDS011;579;52.046;8.532;2023-02-28T09:34:08;0.30;;;0.30;;
1180;SDS011;579;52.046;8.532;2023-02-28T09:36:35;0.30;;;0.30;;
1180;SDS011;579;52.046;8.532;2023-02-28T09:39:02;0.30;;;0.30;;
1180;SDS011;579;52.046;8.532;2023-02-28T09:41:30;0.40;;;0.40;;
1180;SDS011;579;52.046;8.532;2023-02-28T09:44:12;0.50;;;0.50;;
1180;SDS011;579;52.046;8.532;2023-02-28T09:46:48;0.60;;;0.60;;
1180;SDS011;579;52.046;8.532;2023-02-28T09:54:27;0.30;;;0.30;;
1180;SDS011;579;52.046;8.532;2023-02-28T09:56:58;0.40;;;0.40;;
1180;SDS011;579;52.046;8.532;2023-02-28T09:59:33;0.40;;;0.40;;
1180;SDS011;579;52.046;8.532;2023-02-28T10:02:17;0.40;;;0.40;;
1180;SDS011;579;52.046;8.532;2023-02-28T10:05:24;0.40;;;0.40;;
1180;SDS011;579;52.046;8.532;2023-02-28T10:08:00;0.50;;;0.50;;
1180;SDS011;579;52.046;8.532;2023-02-28T10:10:35;0.20;;;0.20;;
1180;SDS011;579;52.046;8.532;2023-02-28T10:14:11;0.25;;;0.25;;
1180;SDS011;579;52.046;8.532;2023-02-28T10:16:42;0.20;;;0.20;;
1180;SDS011;579;52.046;8.532;2023-02-28T10:19:13;0.40;;;0.40;;
1180;SDS011;579;52.046;8.532;2023-02-28T10:21:44;0.20;;;0.20;;
1180;SDS011;579;52.046;8.532;2023-02-28T10:24:19;0.20;;;0.20;;
1180;SDS011;579;52.046;8.532;2023-02-28T10:26:56;0.20;;;0.20;;
1180;SDS011;579;52.046;8.532;2023-02-28T10:29:26;0.10;;;0.10;;
1180;SDS011;579;52.046;8.532;2023-02-28T10:31:57;0.20;;;0.20;;
1180;SDS011;579;52.046;8.532;2023-02-28T10:39:35;0.20;;;0.20;;
1180;SDS011;579;52.046;8.532;2023-02-28T10:42:05;0.20;;;0.20;;
1180;SDS011;579;52.046;8.532;2023-02-28T10:44:46;0.20;;;0.20;;
1180;SDS011;579;52.046;8.532;2023-02-28T10:47:14;0.20;;;0.20;;
1180;SDS011;579;52.046;8.532;2023-02-28T10:49:46;0.10;;;0.10;;
1180;SDS011;579;52.046;8.532;2023-02-28T10:52:14;0.20;;;0.20;;
1180;SDS011;579;52.046;8.532;2023-02-28T10:57:56;0.10;;;0.10;;
1180;SDS011;579;52.046;8.532;2023-02-28T11:00:23;0.15;;;0.15;;
1180;SDS011;579;52.046;8.532;2023-02-28T11:02:57;0.10;;;0.10;;
1180;SDS011;579;52.046;8.532;2023-02-28T11:05:24;0.10;;;0.10;;
1180;SDS011;579;52.046;8.532;2023-02-28T11:07:54;0.10;;;0.10;;
1180;SDS011;579;52.046;8.532;2023-02-28T11:10:23;0.10;;;0.10;;
1180;SDS011;579;52.046;8.532;2023-02-28T11:12:56;0.10;;;0.10;;
1180;SDS011;579;52.046;8.532;2023-02-28T11:20:28;0.20;;;0.20;;
1180;SDS011;579;52.046;8.532;2023-02-28T11:22:57;0.10;;;0.10;;
1180;SDS011;579;52.046;8.532;2023-02-28T11:25:29;0.20;;;0.20;;
1180;SDS011;579;52.046;8.532;2023-02-28T11:27:58;0.10;;;0.10;;
1180;SDS011;579;52.046;8.532;2023-02-28T11:30:31;0.10;;;0.10;;
1180;SDS011;579;52.046;8.532;2023-02-28T11:33:01;0.20;;;0.20;;
1180;SDS011;579;52.046;8.532;2023-02-28T11:35:52;0.20;;;0.20;;
1180;SDS011;579;52.046;8.532;2023-02-28T11:43:32;0.20;;;0.20;;
1180;SDS011;579;52.046;8.532;2023-02-28T11:46:19;0.20;;;0.20;;
1180;SDS011;579;52.046;8.532;2023-02-28T11:48:57;0.20;;;0.20;;
1180;SDS011;579;52.046;8.532;2023-02-28T11:51:32;0.20;;;0.20;;
1180;SDS011;579;52.046;8.532;2023-02-28T11:54:08;0.20;;;0.20;;
1180;SDS011;579;52.046;8.532;2023-02-28T11:56:49;0.10;;;0.10;;
1180;SDS011;579;52.046;8.532;2023-02-28T11:59:31;0.13;;;0.13;;
1180;SDS011;579;52.046;8.532;2023-02-28T12:02:22;0.20;;;0.20;;
1180;SDS011;579;52.046;8.532;2023-02-28T12:04:56;0.20;;;0.20;;
1180;SDS011;579;52.046;8.532;2023-02-28T12:07:38;0.20;;;0.20;;
1180;SDS011;579;52.046;8.532;2023-02-28T12:10:20;0.17;;;0.17;;
1180;SDS011;579;52.046;8.532;2023-02-28T12:12:51;0.20;;;0.20;;
1180;SDS011;579;52.046;8.532;2023-02-28T12:15:36;0.10;;;0.10;;
1180;SDS011;579;52.046;8.532;2023-02-28T12:18:33;0.20;;;0.20;;
1180;SDS011;579;52.046;8.532;2023-02-28T12:21:19;0.17;;;0.17;;
1180;SDS011;579;52.046;8.532;2023-02-28T12:24:00;0.10;;;0.10;;
1180;SDS011;579;52.046;8.532;2023-02-28T12:26:40;0.20;;;0.20;;
1180;SDS011;579;52.046;8.532;2023-02-28T12:29:10;0.20;;;0.20;;
1180;SDS011;579;52.046;8.532;2023-02-28T12:31:45;0.20;;;0.20;;
1180;SDS011;579;52.046;8.532;2023-02-28T12:34:15;0.10;;;0.10;;
1180;SDS011;579;52.046;8.532;2023-02-28T12:36:47;0.10;;;0.10;;
1180;SDS011;579;52.046;8.532;2023-02-28T12:43:12;0.10;;;0.10;;
1180;SDS011;579;52.046;8.532;2023-02-28T12:45:43;0.10;;;0.10;;
1180;SDS011;579;52.046;8.532;2023-02-28T12:48:14;0.10;;;0.10;;
1180;SDS011;579;52.046;8.532;2023-02-28T12:50:44;0.30;;;0.30;;
1180;SDS011;579;52.046;8.532;2023-02-28T12:53:13;0.30;;;0.30;;
1180;SDS011;579;52.046;8.532;2023-02-28T12:55:49;0.30;;;0.30;;
1180;SDS011;579;52.046;8.532;2023-02-28T12:58:27;0.13;;;0.13;;
1180;SDS011;579;52.046;8.532;2023-02-28T13:06:35;0.20;;;0.20;;
1180;SDS011;579;52.046;8.532;2023-02-28T13:09:15;0.20;;;0.20;;
1180;SDS011;579;52.046;8.532;2023-02-28T13:11:43;0.20;;;0.20;;
1180;SDS011;579;52.046;8.532;2023-02-28T13:14:22;0.20;;;0.20;;
1180;SDS011;579;52.046;8.532;2023-02-28T13:16:55;0.20;;;0.20;;
1180;SDS011;579;52.046;8.532;2023-02-28T13:19:26;0.17;;;0.17;;
1180;SDS011;579;52.046;8.532;2023-02-28T13:21:55;0.13;;;0.13;;
1180;SDS011;579;52.046;8.532;2023-02-28T13:29:44;0.20;;;0.20;;
1180;SDS011;579;52.046;8.532;2023-02-28T13:32:30;0.30;;;0.30;;
1180;SDS011;579;52.046;8.532;2023-02-28T13:35:14;0.20;;;0.20;;
1180;SDS011;579;52.046;8.532;2023-02-28T13:44:10;0.20;;;0.20;;
1180;SDS011;579;52.046;8.532;2023-02-28T13:50:14;0.17;;;0.17;;
1180;SDS011;579;52.046;8.532;2023-02-28T13:52:48;0.20;;;0.20;;
1180;SDS011;579;52.046;8.532;2023-02-28T13:55:37;0.10;;;0.10;;
1180;SDS011;579;52.046;8.532;2023-02-28T13:58:18;0.20;;;0.20;;
1180;SDS011;579;52.046;8.532;2023-02-28T14:07:16;0.20;;;0.20;;
1180;SDS011;579;52.046;8.532;2023-02-28T14:10:21;0.30;;;0.30;;
1180;SDS011;579;52.046;8.532;2023-02-28T14:12:55;0.40;;;0.40;;
1180;SDS011;579;52.046;8.532;2023-02-28T14:15:36;0.20;;;0.20;;
1180;SDS011;579;52.046;8.532;2023-02-28T14:18:16;0.30;;;0.30;;
1180;SDS011;579;52.046;8.532;2023-02-28T14:20:52;0.22;;;0.22;;
1180;SDS011;579;52.046;8.532;2023-02-28T14:23:33;0.28;;;0.28;;
1180;SDS011;579;52.046;8.532;2023-02-28T14:29:18;0.40;;;0.40;;
1180;SDS011;579;52.046;8.532;2023-02-28T14:32:10;0.60;;;0.60;;
1180;SDS011;579;52.046;8.532;2023-02-28T14:34:48;0.40;;;0.40;;
1180;SDS011;579;52.046;8.532;2023-02-28T14:37:20;0.30;;;0.30;;
1180;SDS011;579;52.046;8.532;2023-02-28T14:39:52;0.32;;;0.32;;
1180;SDS011;579;52.046;8.532;2023-02-28T14:42:27;0.45;;;0.45;;
1180;SDS011;579;52.046;8.532;2023-02-28T14:44:57;0.50;;;0.50;;
1180;SDS011;579;52.046;8.532;2023-02-28T14:50:03;0.75;;;0.75;;
1180;SDS011;579;52.046;8.532;2023-02-28T14:52:33;0.80;;;0.80;;
1180;SDS011;579;52.046;8.532;2023-02-28T14:55:01;0.60;;;0.60;;
1180;SDS011;579;52.046;8.532;2023-02-28T14:57:32;0.85;;;0.85;;
1180;SDS011;579;52.046;8.532;2023-02-28T15:00:01;0.93;;;0.93;;
1180;SDS011;579;52.046;8.532;2023-02-28T15:02:35;0.63;;;0.63;;
1180;SDS011;579;52.046;8.532;2023-02-28T15:05:16;0.75;;;0.75;;
1180;SDS011;579;52.046;8.532;2023-02-28T15:09:07;3.58;;;3.38;;
1180;SDS011;579;52.046;8.532;2023-02-28T15:11:36;3.00;;;2.90;;
1180;SDS011;579;52.046;8.532;2023-02-28T15:14:04;2.43;;;2.43;;
1180;SDS011;579;52.046;8.532;2023-02-28T15:16:31;2.45;;;2.45;;
1180;SDS011;579;52.046;8.532;2023-02-28T15:19:00;2.70;;;2.70;;
1180;SDS011;579;52.046;8.532;2023-02-28T15:21:31;2.05;;;2.05;;
1180;SDS011;579;52.046;8.532;2023-02-28T15:24:02;2.60;;;2.60;;
1180;SDS011;579;52.046;8.532;2023-02-28T15:29:11;2.75;;;2.75;;
1180;SDS011;579;52.046;8.532;2023-02-28T15:31:43;3.33;;;3.25;;
1180;SDS011;579;52.046;8.532;2023-02-28T15:34:15;2.97;;;2.97;;
1180;SDS011;579;52.046;8.532;2023-02-28T15:36:46;2.37;;;2.37;;
1180;SDS011;579;52.046;8.532;2023-02-28T15:39:19;2.60;;;2.60;;
1180;SDS011;579;52.046;8.532;2023-02-28T15:41:48;2.57;;;2.57;;
1180;SDS011;579;52.046;8.532;2023-02-28T15:44:16;2.33;;;2.33;;
1180;SDS011;579;52.046;8.532;2023-02-28T15:46:56;1.67;;;1.67;;
1180;SDS011;579;52.046;8.532;2023-02-28T15:49:45;1.80;;;1.80;;
1180;SDS011;579;52.046;8.532;2023-02-28T15:52:16;1.73;;;1.73;;
1180;SDS011;579;52.046;8.532;2023-02-28T15:54:53;1.73;;;1.73;;
1180;SDS011;579;52.046;8.532;2023-02-28T15:57:20;2.10;;;2.10;;
1180;SDS011;579;52.046;8.532;2023-02-28T15:59:51;1.87;;;1.87;;
1180;SDS011;579;52.046;8.532;2023-02-28T16:02:20;1.80;;;1.80;;
1180;SDS011;579;52.046;8.532;2023-02-28T16:04:55;1.33;;;1.33;;
1180;SDS011;579;52.046;8.532;2023-02-28T16:13:13;0.10;;;0.10;;
1180;SDS011;579;52.046;8.532;2023-02-28T16:15:41;0.15;;;0.15;;
1180;SDS011;579;52.046;8.532;2023-02-28T16:18:08;0.20;;;0.20;;
1180;SDS011;579;52.046;8.532;2023-02-28T16:20:37;0.20;;;0.20;;
1180;SDS011;579;52.046;8.532;2023-02-28T16:23:04;0.20;;;0.20;;
1180;SDS011;579;52.046;8.532;2023-02-28T16:25:33;0.10;;;0.10;;
1180;SDS011;579;52.046;8.532;2023-02-28T16:28:01;0.10;;;0.10;;
1180;SDS011;579;52.046;8.532;2023-02-28T16:30:28;0.20;;;0.20;;
1180;SDS011;579;52.046;8.532;2023-02-28T16:33:09;0.10;;;0.10;;
1180;SDS011;579;52.046;8.532;2023-02-28T16:35:35;0.10;;;0.10;;
1180;SDS011;579;52.046;8.532;2023-02-28T16:38:01;0.10;;;0.10;;
1180;SDS011;579;52.046;8.532;2023-02-28T16:40:28;0.10;;;0.10;;
1180;SDS011;579;52.046;8.532;2023-02-28T16:43:00;0.10;;;0.10;;
1180;SDS011;579;52.046;8.532;2023-02-28T16:45:31;0.10;;;0.10;;
1180;SDS011;579;52.046;8.532;2023-02-28T16:47:57;0.10;;;0.10;;
1180;SDS011;579;52.046;8.532;2023-02-28T16:50:25;0.10;;;0.10;;
1180;SDS011;579;52.046;8.532;2023-02-28T16:57:54;0.00;;;0.00;;
1180;SDS011;579;52.046;8.532;2023-02-28T17:00:23;0.10;;;0.10;;
1180;SDS011;579;52.046;8.532;2023-02-28T17:02:50;0.00;;;0.00;;
1180;SDS011;579;52.046;8.532;2023-02-28T17:05:17;0.00;;;0.00;;
1180;SDS011;579;52.046;8.532;2023-02-28T17:07:44;0.00;;;0.00;;
1180;SDS011;579;52.046;8.532;2023-02-28T17:10:12;0.00;;;0.00;;
1180;SDS011;579;52.046;8.532;2023-02-28T17:12:41;0.10;;;0.10;;
1180;SDS011;579;52.046;8.532;2023-02-28T17:20:13;0.00;;;0.00;;
1180;SDS011;579;52.046;8.532;2023-02-28T17:22:40;0.00;;;0.00;;
1180;SDS011;579;52.046;8.532;2023-02-28T17:25:07;0.10;;;0.10;;
1180;SDS011;579;52.046;8.532;2023-02-28T17:27:35;0.03;;;0.03;;
1180;SDS011;579;52.046;8.532;2023-02-28T17:30:02;0.00;;;0.00;;
1180;SDS011;579;52.046;8.532;2023-02-28T17:32:29;0.08;;;0.08;;
1180;SDS011;579;52.046;8.532;2023-02-28T17:34:55;0.00;;;0.00;;
1180;SDS011;579;52.046;8.532;2023-02-28T17:40:13;0.00;;;0.00;;
1180;SDS011;579;52.046;8.532;2023-02-28T17:42:41;0.10;;;0.10;;
1180;SDS011;579;52.046;8.532;2023-02-28T17:45:07;0.00;;;0.00;;
1180;SDS011;579;52.046;8.532;2023-02-28T17:47:35;0.10;;;0.10;;
1180;SDS011;579;52.046;8.532;2023-02-28T17:50:01;0.10;;;0.10;;
1180;SDS011;579;52.046;8.532;2023-02-28T17:52:28;0.00;;;0.00;;
1180;SDS011;579;52.046;8.532;2023-02-28T17:54:54;0.00;;;0.00;;
1180;SDS011;579;52.046;8.532;2023-02-28T17:57:21;0.10;;;0.10;;
1180;SDS011;579;52.046;8.532;2023-02-28T18:04:53;0.10;;;0.10;;
1180;SDS011;579;52.046;8.532;2023-02-28T18:07:19;0.10;;;0.10;;
1180;SDS011;579;52.046;8.532;2023-02-28T18:09:47;0.00;;;0.00;;
1180;SDS011;579;52.046;8.532;2023-02-28T18:12:13;0.10;;;0.10;;
1180;SDS011;579;52.046;8.532;2023-02-28T18:14:39;0.10;;;0.10;;
1180;SDS011;579;52.046;8.532;2023-02-28T18:17:08;0.10;;;0.10;;
1180;SDS011;579;52.046;8.532;2023-02-28T18:19:35;0.10;;;0.10;;
1180;SDS011;579;52.046;8.532;2023-02-28T18:24:41;0.10;;;0.10;;
1180;SDS011;579;52.046;8.532;2023-02-28T18:27:07;0.10;;;0.10;;
1180;SDS011;579;52.046;8.532;2023-02-28T18:29:35;0.10;;;0.10;;
1180;SDS011;579;52.046;8.532;2023-02-28T18:32:02;0.10;;;0.10;;
1180;SDS011;579;52.046;8.532;2023-02-28T18:34:30;0.10;;;0.10;;
1180;SDS011;579;52.046;8.532;2023-02-28T18:36:56;0.10;;;0.10;;
1180;SDS011;579;52.046;8.532;2023-02-28T18:39:22;0.05;;;0.05;;
1180;SDS011;579;52.046;8.532;2023-02-28T18:46:49;0.10;;;0.10;;
1180;SDS011;579;52.046;8.532;2023-02-28T18:49:15;0.08;;;0.08;;
1180;SDS011;579;52.046;8.532;2023-02-28T18:51:42;0.00;;;0.00;;
1180;SDS011;579;52.046;8.532;2023-02-28T18:54:10;0.10;;;0.10;;
1180;SDS011;579;52.046;8.532;2023-02-28T18:56:36;0.10;;;0.10;;
1180;SDS011;579;52.046;8.532;2023-02-28T18:59:03;0.10;;;0.10;;
1180;SDS011;579;52.046;8.532;2023-02-28T19:01:29;0.10;;;0.10;;
1180;SDS011;579;52.046;8.532;2023-02-28T19:10:48;0.10;;;0.10;;
1180;SDS011;579;52.046;8.532;2023-02-28T19:13:15;0.00;;;0.00;;
1180;SDS011;579;52.046;8.532;2023-02-28T19:15:41;0.10;;;0.10;;
1180;SDS011;579;52.046;8.532;2023-02-28T19:18:08;0.00;;;0.00;;
1180;SDS011;579;52.046;8.532;2023-02-28T19:20:34;0.05;;;0.05;;